createdAt,value
2019-05-26T00:00:55.299Z,26.10
2019-05-26T00:01:57.763Z,26.07
2019-05-26T00:03:00.150Z,28.35
2019-05-26T00:04:02.682Z,30.05
2019-05-26T00:05:05.640Z,29.30
2019-05-26T00:06:08.321Z,29.75
2019-05-26T00:07:10.749Z,28.23
2019-05-26T00:08:13.145Z,26.52
2019-05-26T00:09:15.657Z,28.47
2019-05-26T00:10:18.667Z,27.77
2019-05-26T00:11:21.180Z,28.85
2019-05-26T00:12:23.773Z,27.17
2019-05-26T00:13:26.190Z,29.55
2019-05-26T00:14:28.916Z,27.80
2019-05-26T00:15:31.317Z,28.70
2019-05-26T00:16:33.929Z,28.52
2019-05-26T00:17:36.662Z,26.57
2019-05-26T00:18:39.154Z,28.85
2019-05-26T00:19:41.619Z,28.30
2019-05-26T00:20:44.087Z,28.77
2019-05-26T00:21:46.671Z,28.52
2019-05-26T00:22:49.222Z,29.23
2019-05-26T00:23:51.622Z,28.12
2019-05-26T00:24:54.121Z,28.62
2019-05-26T00:25:56.636Z,26.65
2019-05-26T00:26:59.409Z,28.05
2019-05-26T00:28:01.826Z,29.40
2019-05-26T00:29:04.464Z,26.42
2019-05-26T00:30:08.823Z,30.85
2019-05-26T00:31:11.260Z,29.70
2019-05-26T00:32:13.692Z,27.35
2019-05-26T00:33:16.088Z,29.80
2019-05-26T00:34:18.511Z,29.07
2019-05-26T00:35:20.965Z,29.90
2019-05-26T00:36:23.400Z,29.82
2019-05-26T00:37:26.021Z,31.02
2019-05-26T00:38:28.427Z,28.10
2019-05-26T00:39:31.259Z,31.23
2019-05-26T00:40:33.722Z,28.42
2019-05-26T00:41:36.514Z,31.17
2019-05-26T00:42:39.255Z,31.52
2019-05-26T00:43:41.676Z,32.42
2019-05-26T00:44:44.219Z,31.15
2019-05-26T00:45:46.657Z,30.68
2019-05-26T00:46:50.396Z,32.13
2019-05-26T00:47:52.828Z,30.68
2019-05-26T00:48:55.222Z,31.52
2019-05-26T00:49:57.665Z,32.45
2019-05-26T00:51:08.190Z,32.00
2019-05-26T00:52:18.876Z,31.17
2019-05-26T00:53:22.437Z,28.57
2019-05-26T00:54:25.059Z,31.05
2019-05-26T00:55:27.564Z,31.82
2019-05-26T00:56:29.988Z,30.60
2019-05-26T00:57:34.369Z,30.82
2019-05-26T00:58:36.848Z,32.40
2019-05-26T00:59:39.451Z,31.93
2019-05-26T01:00:42.893Z,32.65
2019-05-26T01:01:45.297Z,31.82
2019-05-26T01:02:47.811Z,30.90
2019-05-26T01:03:53.232Z,32.30
2019-05-26T01:04:59.241Z,31.35
2019-05-26T01:06:01.888Z,30.27
2019-05-26T01:07:04.299Z,31.05
2019-05-26T01:08:09.244Z,31.73
2019-05-26T01:09:11.643Z,31.00
2019-05-26T01:10:14.180Z,31.55
2019-05-26T01:11:16.730Z,31.17
2019-05-26T01:12:19.158Z,30.05
2019-05-26T01:13:21.556Z,30.23
2019-05-26T01:14:24.045Z,30.80
2019-05-26T01:15:26.571Z,30.37
2019-05-26T01:16:29.029Z,30.08
2019-05-26T01:17:31.454Z,30.10
2019-05-26T01:18:33.883Z,29.45
2019-05-26T01:19:36.344Z,29.45
2019-05-26T01:20:38.771Z,28.73
2019-05-26T01:21:41.171Z,29.63
2019-05-26T01:22:43.684Z,28.75
2019-05-26T01:23:46.103Z,29.90
2019-05-26T01:24:48.565Z,28.47
2019-05-26T01:25:50.997Z,26.33
2019-05-26T01:26:53.434Z,29.48
2019-05-26T01:27:55.847Z,29.67
2019-05-26T01:28:58.316Z,29.63
2019-05-26T01:30:02.217Z,25.95
2019-05-26T01:31:04.782Z,26.77
2019-05-26T01:32:07.190Z,26.10
2019-05-26T01:33:09.604Z,27.90
2019-05-26T01:34:12.047Z,28.25
2019-05-26T01:35:15.572Z,28.25
2019-05-26T01:36:18.497Z,27.13
2019-05-26T01:37:20.926Z,27.58
2019-05-26T01:38:24.740Z,28.30
2019-05-26T01:39:27.546Z,27.10
2019-05-26T01:40:36.526Z,26.65
2019-05-26T01:41:38.977Z,26.33
2019-05-26T01:42:41.535Z,28.27
2019-05-26T01:43:43.952Z,26.52
2019-05-26T01:44:46.401Z,25.40
2019-05-26T01:45:48.825Z,27.45
2019-05-26T01:46:51.351Z,28.60
2019-05-26T01:47:53.762Z,28.70
2019-05-26T01:48:56.395Z,26.02
2019-05-26T01:49:58.852Z,28.27
2019-05-26T01:51:01.274Z,28.02
2019-05-26T01:52:04.789Z,27.50
2019-05-26T01:53:07.220Z,29.37
2019-05-26T01:54:10.764Z,25.92
2019-05-26T01:55:13.283Z,27.17
2019-05-26T01:56:15.719Z,27.95
2019-05-26T01:57:18.142Z,28.92
2019-05-26T01:58:20.985Z,30.17
2019-05-26T01:59:23.511Z,28.02
2019-05-26T02:00:26.137Z,28.17
2019-05-26T02:01:28.580Z,29.67
2019-05-26T02:02:31.216Z,29.35
2019-05-26T02:03:33.664Z,30.27
2019-05-26T02:04:36.091Z,30.88
2019-05-26T02:05:39.957Z,30.80
2019-05-26T02:06:42.977Z,32.70
2019-05-26T02:07:45.479Z,28.62
2019-05-26T02:08:48.291Z,31.17
2019-05-26T02:09:50.698Z,32.05
2019-05-26T02:10:53.132Z,30.60
2019-05-26T02:11:55.643Z,28.90
2019-05-26T02:12:59.874Z,34.80
2019-05-26T02:14:03.022Z,32.25
2019-05-26T02:15:06.193Z,32.42
2019-05-26T02:16:09.700Z,32.85
2019-05-26T02:17:13.911Z,32.88
2019-05-26T02:18:16.348Z,33.45
2019-05-26T02:19:18.889Z,33.80
2019-05-26T02:20:21.621Z,34.33
2019-05-26T02:21:24.063Z,33.95
2019-05-26T02:22:26.575Z,32.35
2019-05-26T02:23:29.084Z,34.23
2019-05-26T02:24:31.496Z,34.43
2019-05-26T02:25:34.068Z,34.63
2019-05-26T02:26:36.458Z,34.30
2019-05-26T02:27:38.861Z,34.67
2019-05-26T02:28:43.141Z,35.60
2019-05-26T02:29:45.634Z,33.33
2019-05-26T02:30:48.183Z,32.83
2019-05-26T02:31:50.718Z,33.78
2019-05-26T02:32:53.482Z,33.10
2019-05-26T02:33:58.845Z,33.80
2019-05-26T02:35:01.465Z,35.78
2019-05-26T02:36:04.097Z,33.63
2019-05-26T02:37:06.720Z,34.85
2019-05-26T02:38:09.144Z,33.18
2019-05-26T02:39:11.549Z,35.75
2019-05-26T02:40:15.281Z,34.90
2019-05-26T02:41:17.717Z,32.35
2019-05-26T02:42:20.144Z,33.63
2019-05-26T02:43:22.778Z,34.25
2019-05-26T02:44:25.496Z,32.40
2019-05-26T02:45:27.954Z,38.80
2019-05-26T02:46:30.423Z,35.00
2019-05-26T02:47:32.830Z,35.23
2019-05-26T02:48:35.543Z,35.73
2019-05-26T02:49:37.956Z,35.17
2019-05-26T02:50:40.390Z,34.30
2019-05-26T02:51:44.040Z,33.70
2019-05-26T02:52:46.589Z,33.60
2019-05-26T02:53:49.187Z,36.15
2019-05-26T02:54:51.691Z,35.78
2019-05-26T02:55:54.710Z,34.85
2019-05-26T02:56:57.338Z,34.75
2019-05-26T02:57:59.783Z,32.75
2019-05-26T02:59:02.212Z,35.40
2019-05-26T03:00:05.865Z,34.43
2019-05-26T03:01:08.686Z,32.93
2019-05-26T03:02:11.203Z,33.78
2019-05-26T03:03:14.759Z,30.68
2019-05-26T03:04:17.184Z,31.97
2019-05-26T03:05:19.698Z,33.08
2019-05-26T03:06:23.799Z,32.05
2019-05-26T03:07:26.952Z,34.80
2019-05-26T03:08:30.875Z,32.65
2019-05-26T03:09:35.580Z,31.73
2019-05-26T03:10:39.758Z,32.40
2019-05-26T03:11:45.499Z,31.87
2019-05-26T03:12:49.436Z,30.65
2019-05-26T03:13:53.657Z,29.52
2019-05-26T03:14:57.882Z,30.85
2019-05-26T03:16:02.850Z,31.80
2019-05-26T03:17:05.456Z,31.97
2019-05-26T03:18:07.854Z,29.90
2019-05-26T03:19:12.074Z,32.28
2019-05-26T03:20:14.740Z,31.75
2019-05-26T03:21:19.369Z,30.62
2019-05-26T03:22:22.784Z,30.45
2019-05-26T03:23:30.012Z,31.05
2019-05-26T03:24:32.538Z,31.23
2019-05-26T03:25:37.204Z,30.40
2019-05-26T03:26:39.619Z,30.95
2019-05-26T03:27:42.139Z,31.30
2019-05-26T03:28:44.548Z,33.67
2019-05-26T03:29:47.016Z,32.67
2019-05-26T03:30:49.611Z,31.42
2019-05-26T03:31:52.257Z,32.15
2019-05-26T03:32:54.774Z,31.10
2019-05-26T03:33:57.189Z,31.77
2019-05-26T03:34:59.621Z,32.88
2019-05-26T03:36:02.159Z,32.55
2019-05-26T03:37:04.792Z,30.02
2019-05-26T03:38:07.210Z,31.52
2019-05-26T03:39:09.625Z,32.78
2019-05-26T03:40:12.384Z,32.42
2019-05-26T03:41:15.018Z,32.48
2019-05-26T03:42:17.454Z,34.08
2019-05-26T03:43:19.860Z,32.67
2019-05-26T03:44:22.398Z,31.93
2019-05-26T03:45:40.041Z,32.88
2019-05-26T03:46:42.740Z,29.37
2019-05-26T03:47:45.240Z,30.43
2019-05-26T03:48:48.272Z,26.90
2019-05-26T03:49:50.818Z,28.90
2019-05-26T03:50:53.266Z,29.27
2019-05-26T03:51:55.906Z,30.08
2019-05-26T03:52:58.614Z,31.97
2019-05-26T03:54:01.176Z,28.85
2019-05-26T03:55:04.299Z,32.23
2019-05-26T03:56:06.739Z,27.48
2019-05-26T03:57:09.196Z,30.30
2019-05-26T03:58:11.911Z,28.38
2019-05-26T03:59:15.547Z,28.00
2019-05-26T04:00:18.066Z,28.17
2019-05-26T04:01:22.340Z,30.85
2019-05-26T04:02:24.871Z,28.50
2019-05-26T04:03:28.427Z,30.27
2019-05-26T04:04:30.852Z,29.15
2019-05-26T04:05:33.396Z,32.65
2019-05-26T04:06:35.934Z,30.17
2019-05-26T04:07:38.368Z,31.23
2019-05-26T04:08:40.766Z,30.90
2019-05-26T04:10:02.599Z,31.20
2019-05-26T04:10:47.710Z,28.20
2019-05-26T04:11:50.161Z,30.30
2019-05-26T04:12:52.718Z,30.88
2019-05-26T04:13:55.185Z,30.90
2019-05-26T04:14:57.618Z,32.35
2019-05-26T04:16:00.154Z,31.10
2019-05-26T04:17:02.795Z,30.37
2019-05-26T04:18:07.107Z,31.02
2019-05-26T04:19:09.554Z,33.23
2019-05-26T04:20:12.494Z,33.23
2019-05-26T04:21:14.920Z,32.83
2019-05-26T04:22:18.628Z,35.38
2019-05-26T04:23:21.049Z,31.97
2019-05-26T04:24:23.493Z,33.38
2019-05-26T04:25:26.027Z,34.53
2019-05-26T04:26:28.456Z,31.57
2019-05-26T04:27:30.883Z,32.63
2019-05-26T04:28:33.421Z,33.02
2019-05-26T04:29:35.884Z,32.98
2019-05-26T04:30:38.291Z,32.50
2019-05-26T04:31:40.721Z,34.67
2019-05-26T04:32:43.375Z,35.85
2019-05-26T04:33:45.900Z,33.30
2019-05-26T04:34:48.361Z,34.75
2019-05-26T04:35:50.822Z,36.40
2019-05-26T04:36:53.545Z,35.73
2019-05-26T04:37:56.118Z,36.73
2019-05-26T04:38:58.537Z,34.25
2019-05-26T04:40:00.976Z,33.35
2019-05-26T04:41:03.412Z,32.63
2019-05-26T04:42:05.926Z,38.95
2019-05-26T04:43:08.392Z,32.55
2019-05-26T04:44:10.993Z,34.05
2019-05-26T04:45:13.407Z,35.10
2019-05-26T04:46:15.920Z,33.33
2019-05-26T04:47:18.445Z,35.23
2019-05-26T04:48:20.885Z,33.75
2019-05-26T04:49:23.304Z,35.98
2019-05-26T04:50:25.736Z,33.13
2019-05-26T04:51:28.161Z,32.83
2019-05-26T04:52:32.467Z,36.10
2019-05-26T04:53:35.049Z,35.48
2019-05-26T04:54:37.458Z,35.78
2019-05-26T04:55:39.994Z,37.38
2019-05-26T04:56:42.416Z,36.80
2019-05-26T04:57:44.938Z,33.50
2019-05-26T04:58:47.460Z,36.20
2019-05-26T04:59:49.878Z,35.03
2019-05-26T05:00:52.545Z,32.65
2019-05-26T05:01:54.948Z,33.42
2019-05-26T05:02:57.379Z,38.95
2019-05-26T05:03:59.971Z,35.50
2019-05-26T05:05:02.523Z,37.40
2019-05-26T05:06:05.051Z,36.25
2019-05-26T05:07:07.452Z,38.40
2019-05-26T05:08:09.872Z,34.15
2019-05-26T05:09:12.293Z,37.48
2019-05-26T05:10:14.852Z,34.98
2019-05-26T05:11:17.352Z,34.73
2019-05-26T05:12:19.777Z,37.55
2019-05-26T05:13:24.896Z,36.25
2019-05-26T05:14:26.507Z,36.55
2019-05-26T05:15:29.191Z,38.28
2019-05-26T05:16:31.757Z,34.85
2019-05-26T05:17:34.194Z,36.40
2019-05-26T05:18:36.613Z,35.40
2019-05-26T05:19:39.155Z,36.58
2019-05-26T05:20:43.387Z,36.50
2019-05-26T05:21:45.811Z,36.88
2019-05-26T05:22:48.485Z,35.92
2019-05-26T05:23:50.910Z,34.18
2019-05-26T05:24:53.322Z,36.08
2019-05-26T05:25:55.868Z,35.95
2019-05-26T05:26:58.336Z,37.63
2019-05-26T05:28:00.845Z,38.17
2019-05-26T05:29:03.586Z,38.65
2019-05-26T05:30:06.863Z,35.58
2019-05-26T05:31:09.308Z,36.77
2019-05-26T05:32:11.705Z,35.17
2019-05-26T05:33:14.155Z,37.30
2019-05-26T05:34:16.705Z,36.03
2019-05-26T05:35:19.625Z,35.15
2019-05-26T05:36:23.298Z,40.28
2019-05-26T05:37:26.192Z,40.23
2019-05-26T05:38:28.743Z,37.17
2019-05-26T05:39:31.216Z,38.67
2019-05-26T05:40:33.746Z,38.73
2019-05-26T05:41:36.191Z,36.42
2019-05-26T05:42:38.711Z,40.83
2019-05-26T05:43:41.136Z,42.48
2019-05-26T05:44:43.538Z,40.92
2019-05-26T05:45:46.327Z,40.88
2019-05-26T05:46:48.810Z,37.53
2019-05-26T05:47:51.214Z,40.85
2019-05-26T05:48:54.377Z,38.83
2019-05-26T05:49:56.829Z,41.80
2019-05-26T05:50:59.299Z,41.60
2019-05-26T05:52:01.847Z,43.70
2019-05-26T05:53:04.371Z,41.70
2019-05-26T05:54:06.877Z,41.95
2019-05-26T05:55:10.145Z,43.30
2019-05-26T05:56:12.857Z,40.67
2019-05-26T05:57:15.352Z,44.63
2019-05-26T05:58:17.791Z,42.20
2019-05-26T05:59:20.199Z,43.00
2019-05-26T06:00:22.734Z,43.50
2019-05-26T06:01:25.153Z,42.33
2019-05-26T06:02:27.611Z,46.98
2019-05-26T06:03:30.058Z,45.30
2019-05-26T06:04:32.506Z,46.63
2019-05-26T06:05:34.935Z,46.05
2019-05-26T06:06:37.350Z,41.83
2019-05-26T06:07:39.902Z,47.38
2019-05-26T06:08:42.415Z,46.75
2019-05-26T06:09:44.974Z,44.48
2019-05-26T06:10:47.686Z,44.20
2019-05-26T06:11:53.253Z,48.80
2019-05-26T06:12:54.418Z,43.08
2019-05-26T06:13:57.193Z,44.58
2019-05-26T06:14:59.619Z,46.40
2019-05-26T06:16:02.041Z,44.50
2019-05-26T06:17:04.471Z,47.58
2019-05-26T06:18:06.894Z,47.80
2019-05-26T06:19:09.318Z,51.02
2019-05-26T06:20:12.581Z,48.73
2019-05-26T06:21:14.999Z,46.20
2019-05-26T06:22:17.428Z,50.78
2019-05-26T06:23:19.849Z,47.55
2019-05-26T06:24:22.264Z,46.68
2019-05-26T06:25:24.706Z,49.35
2019-05-26T06:26:27.154Z,48.28
2019-05-26T06:27:29.575Z,49.45
2019-05-26T06:28:32.000Z,47.38
2019-05-26T06:29:34.445Z,47.65
2019-05-26T06:30:36.976Z,50.48
2019-05-26T06:31:39.473Z,46.98
2019-05-26T06:32:42.008Z,48.70
2019-05-26T06:33:44.458Z,46.28
2019-05-26T06:34:47.004Z,47.73
2019-05-26T06:35:49.420Z,46.50
2019-05-26T06:36:51.835Z,45.95
2019-05-26T06:37:54.586Z,44.40
2019-05-26T06:38:57.158Z,40.98
2019-05-26T06:39:59.673Z,41.18
2019-05-26T06:41:02.192Z,42.65
2019-05-26T06:42:04.633Z,43.55
2019-05-26T06:43:08.027Z,41.23
2019-05-26T06:44:10.691Z,39.45
2019-05-26T06:45:14.419Z,38.08
2019-05-26T06:46:16.872Z,39.70
2019-05-26T06:47:19.284Z,42.58
2019-05-26T06:48:21.705Z,41.28
2019-05-26T06:49:24.231Z,37.75
2019-05-26T06:50:26.626Z,35.78
2019-05-26T06:51:29.077Z,38.70
2019-05-26T06:52:31.661Z,41.23
2019-05-26T06:53:37.344Z,39.60
2019-05-26T06:54:38.434Z,38.15
2019-05-26T06:55:41.071Z,40.55
2019-05-26T06:56:43.513Z,39.33
2019-05-26T06:57:45.929Z,41.40
2019-05-26T06:58:48.376Z,40.33
2019-05-26T06:59:51.443Z,43.55
2019-05-26T07:00:53.899Z,41.73
2019-05-26T07:01:56.344Z,41.65
2019-05-26T07:02:58.992Z,42.17
2019-05-26T07:04:01.732Z,38.95
2019-05-26T07:05:04.656Z,38.05
2019-05-26T07:06:07.201Z,38.70
2019-05-26T07:07:09.715Z,37.48
2019-05-26T07:08:12.279Z,34.98
2019-05-26T07:09:14.813Z,36.20
2019-05-26T07:10:17.435Z,35.95
2019-05-26T07:11:19.921Z,34.98
2019-05-26T07:12:22.377Z,39.50
2019-05-26T07:13:25.038Z,39.13
2019-05-26T07:14:27.660Z,31.50
2019-05-26T07:15:30.087Z,42.67
2019-05-26T07:16:38.027Z,40.67
2019-05-26T07:17:37.506Z,33.78
2019-05-26T07:18:40.037Z,40.25
2019-05-26T07:19:42.666Z,39.45
2019-05-26T07:20:46.202Z,38.23
2019-05-26T07:21:48.606Z,35.65
2019-05-26T07:22:51.150Z,38.83
2019-05-26T07:23:53.574Z,35.63
2019-05-26T07:24:56.095Z,39.18
2019-05-26T07:25:58.519Z,37.58
2019-05-26T07:27:01.056Z,37.33
2019-05-26T07:28:03.899Z,38.10
2019-05-26T07:29:06.312Z,35.83
2019-05-26T07:30:09.603Z,35.03
2019-05-26T07:31:12.076Z,33.70
2019-05-26T07:32:14.547Z,33.90
2019-05-26T07:33:16.943Z,36.95
2019-05-26T07:34:19.353Z,39.03
2019-05-26T07:35:21.818Z,39.85
2019-05-26T07:36:24.236Z,35.90
2019-05-26T07:37:26.702Z,34.78
2019-05-26T07:38:29.119Z,37.73
2019-05-26T07:39:31.635Z,35.35
2019-05-26T07:40:34.101Z,38.20
2019-05-26T07:41:36.579Z,35.15
2019-05-26T07:42:38.976Z,36.05
2019-05-26T07:43:41.408Z,35.03
2019-05-26T07:44:43.811Z,39.15
2019-05-26T07:45:46.219Z,39.23
2019-05-26T07:46:48.641Z,38.53
2019-05-26T07:47:51.195Z,37.85
2019-05-26T07:48:53.716Z,36.70
2019-05-26T07:49:56.146Z,39.00
2019-05-26T07:50:58.585Z,36.33
2019-05-26T07:52:01.080Z,39.70
2019-05-26T07:53:03.736Z,39.80
2019-05-26T07:54:06.142Z,40.65
2019-05-26T07:55:09.003Z,37.35
2019-05-26T07:56:11.416Z,40.05
2019-05-26T07:57:13.835Z,41.28
2019-05-26T07:58:16.238Z,40.58
2019-05-26T07:59:18.745Z,35.83
2019-05-26T08:00:21.672Z,38.67
2019-05-26T08:01:24.570Z,39.65
2019-05-26T08:02:27.246Z,41.45
2019-05-26T08:03:29.710Z,42.17
2019-05-26T08:04:32.300Z,43.85
2019-05-26T08:05:34.720Z,37.73
2019-05-26T08:06:37.196Z,39.83
2019-05-26T08:07:39.667Z,37.35
2019-05-26T08:08:42.386Z,34.80
2019-05-26T08:09:44.911Z,37.88
2019-05-26T08:10:47.408Z,39.58
2019-05-26T08:11:49.958Z,38.95
2019-05-26T08:12:52.506Z,36.75
2019-05-26T08:13:54.908Z,37.35
2019-05-26T08:14:57.312Z,38.53
2019-05-26T08:15:59.883Z,38.15
2019-05-26T08:17:02.350Z,38.13
2019-05-26T08:18:04.864Z,36.68
2019-05-26T08:19:09.104Z,36.42
2019-05-26T08:20:12.475Z,39.70
2019-05-26T08:21:14.891Z,38.75
2019-05-26T08:22:17.313Z,39.78
2019-05-26T08:23:19.740Z,38.30
2019-05-26T08:24:22.173Z,40.67
2019-05-26T08:25:24.565Z,37.85
2019-05-26T08:26:27.009Z,39.75
2019-05-26T08:27:29.567Z,37.23
2019-05-26T08:28:33.932Z,37.15
2019-05-26T08:29:36.448Z,40.45
2019-05-26T08:30:38.985Z,43.10
2019-05-26T08:31:41.616Z,37.50
2019-05-26T08:32:44.069Z,41.42
2019-05-26T08:33:46.471Z,39.45
2019-05-26T08:34:48.915Z,38.33
2019-05-26T08:35:53.154Z,40.10
2019-05-26T08:36:55.580Z,38.45
2019-05-26T08:37:58.110Z,34.18
2019-05-26T08:39:00.642Z,40.10
2019-05-26T08:40:18.682Z,39.35
2019-05-26T08:41:21.104Z,38.20
2019-05-26T08:42:27.288Z,35.90
2019-05-26T08:43:27.899Z,37.28
2019-05-26T08:44:30.308Z,35.88
2019-05-26T08:45:32.746Z,36.10
2019-05-26T08:46:35.169Z,34.53
2019-05-26T08:47:37.537Z,35.90
2019-05-26T08:48:40.074Z,40.28
2019-05-26T08:49:42.498Z,37.38
2019-05-26T08:50:44.902Z,37.93
2019-05-26T08:51:47.315Z,37.50
2019-05-26T08:52:49.957Z,37.45
2019-05-26T08:53:52.413Z,41.75
2019-05-26T08:54:56.738Z,37.17
2019-05-26T08:55:59.294Z,36.20
2019-05-26T08:57:01.704Z,37.67
2019-05-26T08:58:04.673Z,36.42
2019-05-26T08:59:07.127Z,38.67
2019-05-26T09:00:10.444Z,37.08
2019-05-26T09:01:17.229Z,35.78
2019-05-26T09:02:19.776Z,38.00
2019-05-26T09:03:22.174Z,41.83
2019-05-26T09:04:24.653Z,36.53
2019-05-26T09:05:29.188Z,35.95
2019-05-26T09:06:31.630Z,36.35
2019-05-26T09:07:34.159Z,38.00
2019-05-26T09:08:36.689Z,39.27
2019-05-26T09:09:39.142Z,34.35
2019-05-26T09:10:45.507Z,35.63
2019-05-26T09:11:52.739Z,32.58
2019-05-26T09:13:01.542Z,32.80
2019-05-26T09:14:05.102Z,32.93
2019-05-26T09:15:08.160Z,32.75
2019-05-26T09:16:10.584Z,30.43
2019-05-26T09:17:13.130Z,34.83
2019-05-26T09:18:15.773Z,31.35
2019-05-26T09:19:18.263Z,33.05
2019-05-26T09:20:20.945Z,34.50
2019-05-26T09:21:23.416Z,32.30
2019-05-26T09:22:25.948Z,32.42
2019-05-26T09:23:28.361Z,29.40
2019-05-26T09:24:30.766Z,32.50
2019-05-26T09:25:33.234Z,30.57
2019-05-26T09:26:35.767Z,31.95
2019-05-26T09:27:38.184Z,35.10
2019-05-26T09:28:40.595Z,31.93
2019-05-26T09:29:42.987Z,31.62
2019-05-26T09:30:45.479Z,31.62
2019-05-26T09:31:47.942Z,31.60
2019-05-26T09:32:50.421Z,33.48
2019-05-26T09:33:52.954Z,29.42
2019-05-26T09:34:55.472Z,34.92
2019-05-26T09:35:58.987Z,31.27
2019-05-26T09:37:01.555Z,31.77
2019-05-26T09:38:04.083Z,31.48
2019-05-26T09:39:07.591Z,32.17
2019-05-26T09:40:10.613Z,29.57
2019-05-26T09:41:13.059Z,31.05
2019-05-26T09:42:15.872Z,31.37
2019-05-26T09:43:18.304Z,32.25
2019-05-26T09:44:20.734Z,30.88
2019-05-26T09:45:23.172Z,31.37
2019-05-26T09:46:25.638Z,32.85
2019-05-26T09:47:28.076Z,33.63
2019-05-26T09:48:30.571Z,31.52
2019-05-26T09:49:33.011Z,35.23
2019-05-26T09:50:35.641Z,36.75
2019-05-26T09:51:38.072Z,34.43
2019-05-26T09:52:40.589Z,34.35
2019-05-26T09:53:43.276Z,34.15
2019-05-26T09:54:45.779Z,27.27
2019-05-26T09:55:48.335Z,27.93
2019-05-26T09:56:50.897Z,23.87
2019-05-26T09:57:53.618Z,23.98
2019-05-26T09:58:56.086Z,27.52
2019-05-26T09:59:58.670Z,28.27
2019-05-26T10:01:01.129Z,27.35
2019-05-26T10:02:03.553Z,26.85
2019-05-26T10:03:06.019Z,28.47
2019-05-26T10:04:08.442Z,28.52
2019-05-26T10:05:11.104Z,24.15
2019-05-26T10:06:13.548Z,26.73
2019-05-26T10:07:16.224Z,35.75
2019-05-26T10:08:18.734Z,43.50
2019-05-26T10:09:21.194Z,41.37
2019-05-26T10:10:23.632Z,37.58
2019-05-26T10:11:26.059Z,42.55
2019-05-26T10:12:28.513Z,41.70
2019-05-26T10:13:32.798Z,27.73
2019-05-26T10:14:35.251Z,27.62
2019-05-26T10:15:37.781Z,37.90
2019-05-26T10:16:40.188Z,37.53
2019-05-26T10:17:42.620Z,47.55
2019-05-26T10:18:45.130Z,47.10
2019-05-26T10:19:47.602Z,48.50
2019-05-26T10:20:50.145Z,46.77
2019-05-26T10:21:52.560Z,35.50
2019-05-26T10:22:55.014Z,34.67
2019-05-26T10:23:57.548Z,32.20
2019-05-26T10:24:59.982Z,44.20
2019-05-26T10:26:02.439Z,44.53
2019-05-26T10:27:05.009Z,39.33
2019-05-26T10:28:12.196Z,35.58
2019-05-26T10:29:14.812Z,40.65
2019-05-26T10:30:25.814Z,41.95
2019-05-26T10:31:28.430Z,44.10
2019-05-26T10:32:30.899Z,34.80
2019-05-26T10:33:33.440Z,35.80
2019-05-26T10:34:39.730Z,32.00
2019-05-26T10:35:42.715Z,35.45
2019-05-26T10:36:45.292Z,51.33
2019-05-26T10:37:48.011Z,36.10
2019-05-26T10:38:50.562Z,59.05
2019-05-26T10:39:52.976Z,39.05
2019-05-26T10:40:55.400Z,32.10
2019-05-26T10:42:00.480Z,31.17
2019-05-26T10:43:03.103Z,50.50
2019-05-26T10:44:05.640Z,25.08
2019-05-26T10:45:09.016Z,42.75
2019-05-26T10:46:11.443Z,42.20
2019-05-26T10:47:14.005Z,40.75
2019-05-26T10:48:16.422Z,32.03
2019-05-26T10:49:19.127Z,40.30
2019-05-26T10:50:22.058Z,40.43
2019-05-26T10:51:24.678Z,33.53
2019-05-26T10:52:27.295Z,50.30
2019-05-26T10:53:29.925Z,44.63
2019-05-26T10:54:32.372Z,37.28
2019-05-26T10:55:34.810Z,41.73
2019-05-26T10:56:37.244Z,34.53
2019-05-26T10:57:39.766Z,55.00
2019-05-26T10:58:42.538Z,42.33
2019-05-26T10:59:45.162Z,47.25
2019-05-26T11:00:47.584Z,28.62
2019-05-26T11:01:50.215Z,29.15
2019-05-26T11:02:52.666Z,47.53
2019-05-26T11:03:55.079Z,43.50
2019-05-26T11:04:57.518Z,44.98
2019-05-26T11:06:00.264Z,37.48
2019-05-26T11:07:02.806Z,30.97
2019-05-26T11:08:05.255Z,49.93
2019-05-26T11:09:07.946Z,32.17
2019-05-26T11:10:11.091Z,51.00
2019-05-26T11:11:13.717Z,47.27
2019-05-26T11:12:16.140Z,27.98
2019-05-26T11:13:18.552Z,37.20
2019-05-26T11:14:21.017Z,24.75
2019-05-26T11:15:23.497Z,37.85
2019-05-26T11:16:25.919Z,46.50
2019-05-26T11:17:28.353Z,60.83
2019-05-26T11:18:30.769Z,42.93
2019-05-26T11:19:33.311Z,45.25
2019-05-26T11:20:35.899Z,38.25
2019-05-26T11:21:38.330Z,36.17
2019-05-26T11:22:40.859Z,42.53
2019-05-26T11:23:43.240Z,27.65
2019-05-26T11:24:45.713Z,58.08
2019-05-26T11:25:48.239Z,54.48
2019-05-26T11:26:50.892Z,39.90
2019-05-26T11:27:53.588Z,34.78
2019-05-26T11:28:56.094Z,32.63
2019-05-26T11:29:58.730Z,30.90
2019-05-26T11:31:01.160Z,33.65
2019-05-26T11:32:03.783Z,33.35
2019-05-26T11:33:06.243Z,31.85
2019-05-26T11:34:09.042Z,46.70
2019-05-26T11:35:12.012Z,41.42
2019-05-26T11:36:14.416Z,41.35
2019-05-26T11:37:16.863Z,42.43
2019-05-26T11:38:19.283Z,33.33
2019-05-26T11:39:23.543Z,40.55
2019-05-26T11:40:26.069Z,47.55
2019-05-26T11:41:28.670Z,39.38
2019-05-26T11:42:31.306Z,30.97
2019-05-26T11:43:33.718Z,39.90
2019-05-26T11:44:36.209Z,42.13
2019-05-26T11:45:38.743Z,43.28
2019-05-26T11:46:41.165Z,41.53
2019-05-26T11:47:43.624Z,41.28
2019-05-26T11:48:46.279Z,38.55
2019-05-26T11:49:48.965Z,34.10
2019-05-26T11:50:51.572Z,42.50
2019-05-26T11:51:54.454Z,31.75
2019-05-26T11:52:56.980Z,41.70
2019-05-26T11:53:59.391Z,31.73
2019-05-26T11:55:01.825Z,31.37
2019-05-26T11:56:04.243Z,27.75
2019-05-26T11:57:06.788Z,34.92
2019-05-26T11:58:09.352Z,30.95
2019-05-26T11:59:11.845Z,27.52
2019-05-26T12:00:15.543Z,42.27
2019-05-26T12:01:18.058Z,36.30
2019-05-26T12:02:20.463Z,34.25
2019-05-26T12:03:22.951Z,32.20
2019-05-26T12:04:25.474Z,43.90
2019-05-26T12:05:27.952Z,34.88
2019-05-26T12:06:30.409Z,35.05
2019-05-26T12:07:32.835Z,32.30
2019-05-26T12:08:35.250Z,28.38
2019-05-26T12:09:37.667Z,28.92
2019-05-26T12:10:40.117Z,31.05
2019-05-26T12:11:42.520Z,47.95
2019-05-26T12:12:45.146Z,40.58
2019-05-26T12:13:47.761Z,45.45
2019-05-26T12:14:50.196Z,43.87
2019-05-26T12:15:52.865Z,40.35
2019-05-26T12:16:55.311Z,43.60
2019-05-26T12:17:57.728Z,45.15
2019-05-26T12:19:00.171Z,41.18
2019-05-26T12:20:05.206Z,41.65
2019-05-26T12:21:07.720Z,37.65
2019-05-26T12:22:10.286Z,42.23
2019-05-26T12:23:12.732Z,40.75
2019-05-26T12:24:15.161Z,36.65
2019-05-26T12:25:17.636Z,41.53
2019-05-26T12:26:20.052Z,40.17
2019-05-26T12:27:22.593Z,38.73
2019-05-26T12:28:25.658Z,38.83
2019-05-26T12:29:28.114Z,44.33
2019-05-26T12:30:30.525Z,37.30
2019-05-26T12:31:32.978Z,40.78
2019-05-26T12:32:35.430Z,33.75
2019-05-26T12:33:37.894Z,41.40
2019-05-26T12:34:40.329Z,42.48
2019-05-26T12:35:44.602Z,43.75
2019-05-26T12:36:47.093Z,45.98
2019-05-26T12:37:49.545Z,38.73
2019-05-26T12:38:52.099Z,39.00
2019-05-26T12:39:54.615Z,41.15
2019-05-26T12:40:57.098Z,37.58
2019-05-26T12:41:59.634Z,42.93
2019-05-26T12:43:03.345Z,39.23
2019-05-26T12:44:06.079Z,46.37
2019-05-26T12:45:09.130Z,39.15
2019-05-26T12:46:12.880Z,44.23
2019-05-26T12:47:15.586Z,44.25
2019-05-26T12:48:18.289Z,34.98
2019-05-26T12:49:20.726Z,48.48
2019-05-26T12:50:23.113Z,27.17
2019-05-26T12:51:25.779Z,40.15
2019-05-26T12:52:28.352Z,36.85
2019-05-26T12:53:30.982Z,47.83
2019-05-26T12:54:33.441Z,41.77
2019-05-26T12:55:35.952Z,42.23
2019-05-26T12:56:38.547Z,45.90
2019-05-26T12:57:41.252Z,37.28
2019-05-26T12:58:43.872Z,37.63
2019-05-26T12:59:46.365Z,43.40
2019-05-26T13:00:53.835Z,43.08
2019-05-26T13:01:55.468Z,40.63
2019-05-26T13:02:57.891Z,57.83
2019-05-26T13:04:00.376Z,44.15
2019-05-26T13:05:03.587Z,45.83
2019-05-26T13:06:06.508Z,39.42
2019-05-26T13:07:09.253Z,42.23
2019-05-26T13:08:11.699Z,41.02
2019-05-26T13:09:14.427Z,49.30
2019-05-26T13:10:18.588Z,42.93
2019-05-26T13:11:22.903Z,37.17
2019-05-26T13:12:25.504Z,57.58
2019-05-26T13:13:27.931Z,32.25
2019-05-26T13:14:30.366Z,46.77
2019-05-26T13:15:32.857Z,53.42
2019-05-26T13:16:35.920Z,47.13
2019-05-26T13:17:38.722Z,40.38
2019-05-26T13:18:41.134Z,28.98
2019-05-26T13:19:43.559Z,29.82
2019-05-26T13:20:46.023Z,47.08
2019-05-26T13:21:48.505Z,36.90
2019-05-26T13:22:50.941Z,28.40
2019-05-26T13:23:53.356Z,45.40
2019-05-26T13:24:55.809Z,34.53
2019-05-26T13:25:58.240Z,28.02
2019-05-26T13:27:00.642Z,44.70
2019-05-26T13:28:03.274Z,37.90
2019-05-26T13:29:05.685Z,31.10